Time;durP1;ratioP1;P1;durP2;ratioP2;P2;SDS_P1;SDS_P2;PMS_P1;PMS_P2;Temp;Humidity;BMP_temperature;BMP_pressure;BME280_temperature;BME280_humidity;BME280_pressure;Samples;Min_cycle;Max_cycle;Signal;HPM_P1;HPM_P2
2021/09/22 00:00:07;;;;;;;18.83;8.10;;;15.70;93.50;;;;;;4974015;28;20031;-71
2021/09/22 00:02:33;;;;;;;15.25;8.50;;;15.60;93.60;;;;;;4974531;28;20357;-72
2021/09/22 00:04:58;;;;;;;13.35;8.07;;;15.70;93.70;;;;;;4973282;28;20097;-71
2021/09/22 00:07:24;;;;;;;14.70;7.95;;;15.60;93.80;;;;;;4973696;28;20039;-71
2021/09/22 00:09:50;;;;;;;14.95;8.30;;;15.60;93.80;;;;;;4974006;28;20042;-71
2021/09/22 00:12:15;;;;;;;16.92;9.27;;;15.60;93.90;;;;;;4973716;28;20109;-68
2021/09/22 00:14:41;;;;;;;15.13;8.50;;;15.50;94.00;;;;;;4974262;28;20026;-69
2021/09/22 00:17:07;;;;;;;15.98;8.80;;;15.60;94.00;;;;;;4973835;28;20149;-70
2021/09/22 00:19:32;;;;;;;19.42;8.73;;;15.60;93.90;;;;;;4973922;28;20425;-70
2021/09/22 00:21:58;;;;;;;16.67;9.15;;;15.70;94.00;;;;;;4973774;28;20031;-70
2021/09/22 00:24:23;;;;;;;15.18;9.27;;;15.70;94.00;;;;;;4973601;28;20031;-71
2021/09/22 00:26:49;;;;;;;16.17;9.70;;;15.50;94.10;;;;;;4972886;28;20117;-70
2021/09/22 00:29:15;;;;;;;14.52;9.35;;;15.60;94.10;;;;;;4973652;28;20117;-70
2021/09/22 00:31:41;;;;;;;14.68;8.88;;;15.60;94.20;;;;;;4972406;28;20042;-70
2021/09/22 00:34:06;;;;;;;17.45;9.30;;;15.50;94.40;;;;;;4973518;28;20081;-70
2021/09/22 00:36:32;;;;;;;18.30;10.07;;;15.50;94.40;;;;;;4973485;28;20122;-71
2021/09/22 00:38:58;;;;;;;17.55;9.57;;;15.50;94.50;;;;;;4973746;28;20038;-69
2021/09/22 00:41:24;;;;;;;18.75;9.88;;;15.50;94.60;;;;;;4973320;28;20046;-71
2021/09/22 00:43:50;;;;;;;16.60;8.98;;;15.50;94.70;;;;;;4973134;28;20093;-69
2021/09/22 00:46:15;;;;;;;13.60;8.70;;;15.50;94.80;;;;;;4973225;28;20060;-71
2021/09/22 00:48:41;;;;;;;17.25;10.88;;;15.40;94.90;;;;;;4972962;28;20027;-69
2021/09/22 00:51:08;;;;;;;19.58;11.13;;;15.40;95.00;;;;;;4973142;28;20346;-68
2021/09/22 00:53:35;;;;;;;21.83;9.57;;;15.40;95.00;;;;;;4973552;28;20057;-70
2021/09/22 00:56:03;;;;;;;17.65;9.98;;;15.40;95.20;;;;;;4971958;28;20097;-70
2021/09/22 00:58:30;;;;;;;26.17;11.55;;;15.40;95.10;;;;;;4972847;28;20557;-70
2021/09/22 01:00:56;;;;;;;18.08;10.65;;;15.40;95.20;;;;;;4973076;28;20054;-70
2021/09/22 01:03:22;;;;;;;19.42;10.18;;;15.40;95.30;;;;;;4972725;28;20035;-70
2021/09/22 01:05:49;;;;;;;16.25;10.05;;;15.40;95.50;;;;;;4973132;28;20035;-70
2021/09/22 01:08:16;;;;;;;21.08;10.57;;;15.40;95.40;;;;;;4972583;28;20100;-70
2021/09/22 01:10:44;;;;;;;18.70;10.48;;;15.30;95.60;;;;;;4971811;28;20042;-71
2021/09/22 01:13:09;;;;;;;19.73;10.95;;;15.30;95.70;;;;;;4972877;28;20041;-71
2021/09/22 01:15:38;;;;;;;19.73;10.85;;;15.30;95.70;;;;;;4972922;28;20043;-70
2021/09/22 01:18:07;;;;;;;20.45;10.23;;;15.40;95.70;;;;;;4971399;28;20033;-70
2021/09/22 01:20:33;;;;;;;17.98;10.63;;;15.40;95.70;;;;;;4973170;28;20023;-70
2021/09/22 01:23:01;;;;;;;20.30;10.73;;;15.30;95.80;;;;;;4972714;28;20473;-71
2021/09/22 01:25:27;;;;;;;27.27;10.88;;;15.40;95.90;;;;;;4972679;28;20469;-71
2021/09/22 01:27:56;;;;;;;19.52;11.73;;;15.40;95.90;;;;;;4971724;28;20034;-70
2021/09/22 01:30:22;;;;;;;25.75;11.43;;;15.30;96.10;;;;;;4972899;28;20115;-71
2021/09/22 01:32:54;;;;;;;21.95;12.23;;;15.30;96.10;;;;;;4972941;28;20118;-70
2021/09/22 01:35:21;;;;;;;22.15;11.95;;;15.30;96.10;;;;;;4976675;28;20027;-71
2021/09/22 01:37:47;;;;;;;23.42;12.77;;;15.30;96.20;;;;;;4991881;28;20449;-70
2021/09/22 01:40:14;;;;;;;23.92;11.57;;;15.40;96.10;;;;;;4991984;28;20038;-71
2021/09/22 01:42:40;;;;;;;18.63;10.93;;;15.50;96.10;;;;;;4992016;28;20034;-69
2021/09/22 01:45:07;;;;;;;23.45;11.85;;;15.40;96.00;;;;;;4992378;28;20085;-69
2021/09/22 01:47:33;;;;;;;22.95;12.25;;;15.40;96.20;;;;;;4992123;28;20481;-70
2021/09/22 01:50:10;;;;;;;19.70;12.07;;;15.40;96.10;;;;;;4991807;28;20101;-71
2021/09/22 01:52:37;;;;;;;22.55;12.88;;;15.40;96.30;;;;;;4991734;28;20041;-70
2021/09/22 01:55:03;;;;;;;23.10;12.50;;;15.40;96.30;;;;;;4991769;28;20034;-70
2021/09/22 01:57:29;;;;;;;21.48;12.38;;;15.30;96.60;;;;;;4991672;28;20034;-70
2021/09/22 01:59:55;;;;;;;20.02;12.48;;;15.20;96.40;;;;;;4992239;28;20353;-70
2021/09/22 02:02:20;;;;;;;19.23;11.85;;;15.30;96.40;;;;;;4991674;28;20030;-70
2021/09/22 02:04:46;;;;;;;25.60;11.90;;;15.20;96.50;;;;;;4991516;28;20063;-70
2021/09/22 02:07:11;;;;;;;27.50;11.23;;;15.20;96.60;;;;;;4990437;28;20038;-70
2021/09/22 02:09:37;;;;;;;21.23;12.77;;;15.10;96.80;;;;;;4991452;28;20054;-70
2021/09/22 02:12:03;;;;;;;25.60;12.13;;;15.30;96.50;;;;;;4991601;28;20038;-70
2021/09/22 02:14:29;;;;;;;24.27;12.07;;;15.30;96.50;;;;;;4991924;28;20133;-70
2021/09/22 02:16:54;;;;;;;23.77;12.52;;;15.30;96.50;;;;;;4991663;28;20117;-71
2021/09/22 02:19:21;;;;;;;22.58;12.27;;;15.20;96.60;;;;;;4991448;28;20496;-70
2021/09/22 02:21:47;;;;;;;26.13;13.20;;;15.20;96.70;;;;;;4991592;28;20037;-70
2021/09/22 02:24:12;;;;;;;24.08;13.85;;;15.10;96.80;;;;;;4991401;28;20026;-70
2021/09/22 02:26:38;;;;;;;24.30;12.95;;;15.10;96.80;;;;;;4991800;28;20034;-70
2021/09/22 02:29:03;;;;;;;23.88;13.57;;;15.10;96.90;;;;;;4992933;28;20041;-70
2021/09/22 02:31:29;;;;;;;19.35;12.43;;;15.10;96.90;;;;;;4994189;28;20027;-70
2021/09/22 02:33:55;;;;;;;22.67;13.35;;;15.00;97.00;;;;;;4995305;28;20031;-71
2021/09/22 02:36:20;;;;;;;25.13;13.25;;;15.10;97.00;;;;;;4995219;28;20056;-70
2021/09/22 02:38:46;;;;;;;22.77;13.30;;;15.10;97.00;;;;;;4995385;28;20057;-68
2021/09/22 02:41:11;;;;;;;20.13;12.35;;;15.10;96.80;;;;;;4994923;28;20134;-71
2021/09/22 02:43:37;;;;;;;22.98;13.20;;;15.10;96.90;;;;;;4994802;28;20119;-71
2021/09/22 02:46:03;;;;;;;22.27;13.20;;;15.10;97.00;;;;;;4995017;28;20038;-70
2021/09/22 02:48:28;;;;;;;21.50;12.73;;;15.10;97.00;;;;;;4994942;28;20135;-70
2021/09/22 02:50:54;;;;;;;23.63;13.52;;;15.00;97.00;;;;;;4995332;28;20026;-70
2021/09/22 02:53:20;;;;;;;21.63;12.10;;;15.00;97.10;;;;;;4994776;28;20035;-71
2021/09/22 02:55:45;;;;;;;23.75;12.85;;;15.00;97.00;;;;;;4994712;28;20126;-71
2021/09/22 02:58:12;;;;;;;25.15;13.88;;;15.00;97.10;;;;;;4994945;28;20125;-69
2021/09/22 03:00:37;;;;;;;29.75;13.95;;;15.00;97.30;;;;;;4994680;28;20376;-69
2021/09/22 03:03:03;;;;;;;24.75;13.52;;;15.00;97.20;;;;;;4993482;28;20018;-71
2021/09/22 03:05:29;;;;;;;23.80;13.57;;;14.90;97.30;;;;;;4994094;28;20077;-70
2021/09/22 03:07:55;;;;;;;25.02;14.30;;;14.80;97.40;;;;;;4994355;28;20068;-70
2021/09/22 03:10:20;;;;;;;25.08;13.35;;;14.90;97.50;;;;;;4994641;28;20026;-70
2021/09/22 03:12:46;;;;;;;21.70;13.13;;;15.00;97.40;;;;;;4994402;28;20030;-70
2021/09/22 03:15:12;;;;;;;29.05;14.60;;;15.00;97.40;;;;;;4994317;28;20497;-71
2021/09/22 03:17:38;;;;;;;28.40;14.25;;;15.00;97.30;;;;;;4994873;28;20282;-71
2021/09/22 03:20:04;;;;;;;25.02;14.15;;;15.00;97.50;;;;;;4994256;28;20042;-71
2021/09/22 03:22:30;;;;;;;25.17;13.80;;;15.00;97.40;;;;;;4994354;28;20038;-71
2021/09/22 03:24:56;;;;;;;28.77;15.00;;;15.00;97.50;;;;;;4994455;28;20046;-70
2021/09/22 03:27:21;;;;;;;27.95;14.50;;;15.00;97.60;;;;;;4994242;28;20136;-71
2021/09/22 03:29:47;;;;;;;24.73;14.20;;;15.00;97.70;;;;;;4994692;28;20041;-71
2021/09/22 03:32:13;;;;;;;26.30;14.45;;;14.90;97.70;;;;;;4994365;28;20054;-71
2021/09/22 03:34:39;;;;;;;23.50;14.05;;;15.00;97.70;;;;;;4994046;28;20034;-70
2021/09/22 03:37:05;;;;;;;29.40;15.68;;;15.00;97.70;;;;;;4994139;28;20381;-71
2021/09/22 03:39:30;;;;;;;23.60;14.35;;;14.90;97.90;;;;;;4993974;28;20034;-71
2021/09/22 03:41:56;;;;;;;33.25;14.43;;;14.90;98.00;;;;;;4994536;28;20530;-70
2021/09/22 03:44:21;;;;;;;33.40;15.23;;;15.00;98.00;;;;;;4993896;28;20653;-70
2021/09/22 03:46:47;;;;;;;33.17;15.73;;;14.90;98.00;;;;;;4992910;28;20133;-71
2021/09/22 03:49:13;;;;;;;29.75;14.52;;;14.80;98.30;;;;;;4993870;28;20365;-70
2021/09/22 03:51:38;;;;;;;28.90;15.77;;;14.90;98.30;;;;;;4992799;28;20040;-70
2021/09/22 03:54:04;;;;;;;27.48;15.52;;;14.90;98.20;;;;;;4993729;28;20338;-71
2021/09/22 03:56:30;;;;;;;26.27;15.00;;;14.90;98.20;;;;;;4993142;28;20029;-71
2021/09/22 03:58:55;;;;;;;29.77;16.70;;;14.90;98.30;;;;;;4993508;28;20046;-71
2021/09/22 04:01:21;;;;;;;27.83;15.48;;;14.90;98.40;;;;;;4993596;28;20545;-71
2021/09/22 04:03:47;;;;;;;32.80;16.23;;;14.90;98.40;;;;;;4993541;28;20070;-70
2021/09/22 04:06:12;;;;;;;30.10;16.30;;;14.70;98.70;;;;;;4993153;28;20109;-71
2021/09/22 04:08:38;;;;;;;29.90;17.38;;;14.70;98.70;;;;;;4993632;28;20034;-70
2021/09/22 04:11:04;;;;;;;29.88;16.52;;;14.70;99.00;;;;;;4993411;28;20110;-69
2021/09/22 04:13:29;;;;;;;31.55;16.85;;;14.70;99.00;;;;;;4993325;28;20438;-69
2021/09/22 04:15:55;;;;;;;28.73;16.38;;;14.70;99.10;;;;;;4993306;28;20042;-70
2021/09/22 04:18:20;;;;;;;27.33;15.77;;;14.80;99.10;;;;;;4993162;28;20461;-70
2021/09/22 04:20:46;;;;;;;29.08;16.15;;;14.80;98.90;;;;;;4993493;28;20045;-70
2021/09/22 04:23:12;;;;;;;26.58;15.50;;;14.80;99.00;;;;;;4993102;28;20397;-70
2021/09/22 04:25:37;;;;;;;27.45;15.13;;;14.90;98.80;;;;;;4992991;28;20485;-70
2021/09/22 04:28:03;;;;;;;30.33;16.13;;;14.90;98.80;;;;;;4993019;28;20649;-70
2021/09/22 04:30:29;;;;;;;36.05;16.98;;;14.90;98.90;;;;;;4992920;28;20453;-71
2021/09/22 04:32:55;;;;;;;27.88;16.73;;;14.80;99.10;;;;;;4993504;28;20097;-71
2021/09/22 04:35:20;;;;;;;34.42;16.70;;;14.80;99.00;;;;;;4993093;28;20121;-71
2021/09/22 04:37:47;;;;;;;31.20;16.90;;;14.90;99.00;;;;;;4992684;28;20046;-70
2021/09/22 04:40:14;;;;;;;30.33;17.42;;;14.90;99.00;;;;;;4992749;28;20042;-71
2021/09/22 04:42:40;;;;;;;31.77;17.37;;;14.80;99.10;;;;;;4992600;28;20031;-70
2021/09/22 04:45:07;;;;;;;28.02;16.33;;;14.80;99.20;;;;;;4992644;28;20416;-71
2021/09/22 04:47:33;;;;;;;36.85;17.20;;;14.70;99.30;;;;;;4992853;28;20547;-71
2021/09/22 04:50:01;;;;;;;33.67;17.35;;;14.70;99.40;;;;;;4992664;28;20092;-70
2021/09/22 04:52:26;;;;;;;;;;;14.70;99.50;;;;;;4992450;28;20100;-71
2021/09/22 04:54:52;;;;;;;28.90;16.65;;;14.70;99.40;;;;;;4992340;28;20000;-71
2021/09/22 04:57:18;;;;;;;31.95;17.90;;;14.70;99.40;;;;;;4991185;28;20040;-71
2021/09/22 04:59:43;;;;;;;32.53;17.30;;;14.70;99.40;;;;;;4992827;28;20139;-71
2021/09/22 05:02:09;;;;;;;36.05;18.50;;;14.60;99.60;;;;;;4992161;28;20060;-70
2021/09/22 05:04:35;;;;;;;34.20;17.08;;;14.70;99.50;;;;;;4992419;28;20128;-71
2021/09/22 05:07:03;;;;;;;31.95;16.92;;;14.70;99.60;;;;;;4992074;28;20473;-71
2021/09/22 05:09:28;;;;;;;27.73;16.35;;;14.80;99.50;;;;;;4992152;28;20050;-70
2021/09/22 05:11:54;;;;;;;32.17;18.00;;;14.80;99.70;;;;;;4992372;28;20026;-71
2021/09/22 05:14:20;;;;;;;33.65;17.55;;;14.70;99.60;;;;;;4992426;28;20044;-70
2021/09/22 05:16:46;;;;;;;31.00;18.10;;;14.70;99.60;;;;;;4992170;28;20555;-71
2021/09/22 05:19:12;;;;;;;36.70;18.77;;;14.70;99.70;;;;;;4992070;28;20035;-71
2021/09/22 05:21:37;;;;;;;35.17;18.67;;;14.70;99.70;;;;;;4992217;28;20041;-71
2021/09/22 05:24:03;;;;;;;34.47;17.77;;;14.60;99.90;;;;;;4991590;28;20030;-71
2021/09/22 05:26:29;;;;;;;32.63;17.40;;;14.60;99.90;;;;;;4973201;28;20432;-70
2021/09/22 05:28:54;;;;;;;36.72;17.92;;;14.70;99.90;;;;;;4986522;28;20030;-72
2021/09/22 05:31:20;;;;;;;32.88;18.65;;;14.80;99.80;;;;;;4991584;28;20484;-72
2021/09/22 05:33:45;;;;;;;30.85;17.10;;;14.80;99.80;;;;;;4991736;28;20034;-70
2021/09/22 05:36:11;;;;;;;33.03;18.40;;;14.90;99.70;;;;;;4991725;28;20022;-72
2021/09/22 05:38:37;;;;;;;34.10;18.52;;;14.90;99.50;;;;;;4992284;28;20355;-71
2021/09/22 05:41:02;;;;;;;32.35;17.48;;;15.00;99.50;;;;;;4991550;28;20549;-73
2021/09/22 05:43:28;;;;;;;36.28;19.15;;;15.00;99.50;;;;;;4991532;28;20125;-70
2021/09/22 05:45:53;;;;;;;33.70;18.48;;;15.00;99.50;;;;;;4990390;28;20067;-69
2021/09/22 05:48:19;;;;;;;33.15;18.02;;;15.00;99.50;;;;;;4991739;28;20400;-69
2021/09/22 05:50:45;;;;;;;33.47;17.25;;;15.00;99.50;;;;;;4992013;28;20026;-70
2021/09/22 05:53:10;;;;;;;37.83;19.52;;;15.00;99.60;;;;;;4991070;28;20037;-68
2021/09/22 05:55:36;;;;;;;33.10;18.40;;;15.00;99.60;;;;;;4972155;28;20043;-68
2021/09/22 05:58:02;;;;;;;31.08;17.35;;;15.00;99.60;;;;;;4970957;28;20038;-67
2021/09/22 06:00:27;;;;;;;32.72;18.42;;;15.10;99.60;;;;;;4971900;28;20101;-68
2021/09/22 06:02:53;;;;;;;35.83;18.90;;;15.00;99.70;;;;;;4972522;28;20027;-68
2021/09/22 06:05:19;;;;;;;35.03;18.38;;;15.00;99.80;;;;;;4975793;28;20461;-68
2021/09/22 06:07:44;;;;;;;35.15;18.45;;;14.90;99.90;;;;;;4975919;28;20354;-68
2021/09/22 06:10:10;;;;;;;33.17;18.35;;;15.00;99.90;;;;;;4976124;28;20116;-68
2021/09/22 06:12:36;;;;;;;37.25;18.95;;;15.00;99.90;;;;;;4975930;28;20034;-68
2021/09/22 06:15:01;;;;;;;40.47;20.42;;;15.00;99.90;;;;;;4976447;28;20023;-68
2021/09/22 06:17:27;;;;;;;34.97;19.27;;;15.00;99.90;;;;;;4976317;28;20026;-68
2021/09/22 06:19:53;;;;;;;40.38;20.38;;;15.10;99.90;;;;;;4975907;28;20426;-70
2021/09/22 06:22:24;;;;;;;36.30;19.48;;;15.20;99.90;;;;;;4975940;28;20183;-69
2021/09/22 06:24:50;;;;;;;42.10;20.42;;;15.10;99.90;;;;;;4975907;28;20030;-69
2021/09/22 06:27:16;;;;;;;36.53;18.70;;;15.20;99.90;;;;;;4975588;28;20073;-70
2021/09/22 06:29:42;;;;;;;31.38;17.60;;;15.30;99.90;;;;;;4976004;28;20050;-70
2021/09/22 06:32:07;;;;;;;36.03;19.25;;;15.40;99.80;;;;;;4975686;28;20117;-70
2021/09/22 06:34:33;;;;;;;35.92;19.67;;;15.40;99.80;;;;;;4975541;28;20110;-70
2021/09/22 06:36:58;;;;;;;34.90;17.90;;;15.30;99.90;;;;;;4975325;28;20035;-72
2021/09/22 06:39:24;;;;;;;31.48;18.10;;;15.40;99.90;;;;;;4975371;28;20031;-72
2021/09/22 06:41:50;;;;;;;33.53;17.67;;;15.30;99.90;;;;;;4974739;28;20101;-70
2021/09/22 06:44:15;;;;;;;37.03;17.88;;;15.30;99.90;;;;;;4975500;28;20436;-71
2021/09/22 06:46:41;;;;;;;35.40;18.88;;;15.30;99.90;;;;;;4975082;28;20035;-71
2021/09/22 06:49:06;;;;;;;31.08;18.48;;;15.40;99.90;;;;;;4974404;28;20428;-71
2021/09/22 06:51:32;;;;;;;36.00;18.65;;;15.50;99.90;;;;;;4975308;28;20325;-69
2021/09/22 06:53:57;;;;;;;30.90;17.45;;;15.60;99.90;;;;;;4975675;28;20398;-71
2021/09/22 06:56:25;;;;;;;31.85;17.88;;;15.60;99.90;;;;;;4975079;28;20085;-71
2021/09/22 06:58:51;;;;;;;32.95;16.33;;;15.60;99.90;;;;;;4975103;28;20031;-69
2021/09/22 07:01:17;;;;;;;33.63;18.70;;;15.70;99.90;;;;;;4975136;28;20045;-71
2021/09/22 07:03:43;;;;;;;36.83;18.60;;;15.60;99.90;;;;;;4974953;28;20121;-71
2021/09/22 07:06:11;;;;;;;29.35;16.88;;;15.70;99.90;;;;;;4975131;28;20114;-71
2021/09/22 07:08:37;;;;;;;;;;;15.70;99.90;;;;;;4974975;28;20444;-70
2021/09/22 07:11:03;;;;;;;29.92;15.95;;;15.70;99.90;;;;;;4973898;28;20009;-71
2021/09/22 07:13:28;;;;;;;33.20;16.70;;;15.80;99.90;;;;;;4973625;28;20118;-71
2021/09/22 07:15:54;;;;;;;28.33;15.85;;;15.80;99.90;;;;;;4973305;28;20031;-71
2021/09/22 07:18:20;;;;;;;34.63;16.27;;;15.90;99.90;;;;;;4973427;28;20027;-70
2021/09/22 07:20:47;;;;;;;29.50;15.90;;;15.90;99.90;;;;;;4974010;28;20041;-71
2021/09/22 07:23:13;;;;;;;30.35;16.35;;;16.00;99.80;;;;;;4973442;28;20093;-71
2021/09/22 07:25:38;;;;;;;32.33;15.65;;;16.10;99.70;;;;;;4973361;28;20038;-70
2021/09/22 07:28:04;;;;;;;31.95;14.93;;;16.00;99.80;;;;;;4973500;28;20438;-71
2021/09/22 07:30:29;;;;;;;27.33;14.98;;;16.00;99.70;;;;;;4973442;28;20497;-70
2021/09/22 07:32:59;;;;;;;30.42;16.17;;;16.00;99.80;;;;;;4973929;28;20026;-70
2021/09/22 07:35:25;;;;;;;31.08;15.15;;;16.00;99.70;;;;;;4973356;28;20525;-70
2021/09/22 07:37:50;;;;;;;34.53;16.02;;;16.00;99.70;;;;;;4972311;28;20118;-70
2021/09/22 07:40:16;;;;;;;32.25;14.90;;;16.10;99.70;;;;;;4972591;28;20177;-70
2021/09/22 07:42:42;;;;;;;27.67;14.52;;;16.20;99.70;;;;;;4973311;28;20030;-71
2021/09/22 07:45:08;;;;;;;29.23;15.98;;;16.30;99.70;;;;;;4973260;28;20108;-71
2021/09/22 07:47:34;;;;;;;30.75;13.75;;;16.20;99.60;;;;;;4973639;28;20058;-70
2021/09/22 07:50:00;;;;;;;28.23;14.18;;;16.20;99.70;;;;;;4973429;28;20491;-70
2021/09/22 07:52:26;;;;;;;29.05;13.60;;;16.30;99.70;;;;;;4973179;28;20507;-71
2021/09/22 07:54:51;;;;;;;28.77;13.65;;;16.30;99.50;;;;;;4973230;28;20054;-70
2021/09/22 07:57:18;;;;;;;29.45;13.70;;;16.30;99.50;;;;;;4973007;28;20034;-70
2021/09/22 07:59:43;;;;;;;24.73;13.23;;;16.30;99.50;;;;;;4973545;28;20023;-71
2021/09/22 08:02:09;;;;;;;26.75;12.73;;;16.30;99.50;;;;;;4972861;28;20045;-70
2021/09/22 08:04:35;;;;;;;26.70;12.82;;;16.30;99.60;;;;;;4972750;28;20038;-70
2021/09/22 08:07:02;;;;;;;31.65;13.02;;;16.40;99.50;;;;;;4972640;28;20374;-70
2021/09/22 08:09:28;;;;;;;27.63;12.67;;;16.40;99.40;;;;;;4936088;28;1088870;-70
2021/09/22 08:11:54;;;;;;;34.13;14.25;;;16.50;99.40;;;;;;4974465;28;20039;-69
2021/09/22 08:14:20;;;;;;;34.08;13.75;;;16.60;99.30;;;;;;4973700;28;20031;-70
2021/09/22 08:16:45;;;;;;;28.05;13.23;;;16.70;99.30;;;;;;4973479;28;20026;-69
2021/09/22 08:19:12;;;;;;;27.90;13.07;;;16.70;99.20;;;;;;4973301;28;20068;-70
2021/09/22 08:21:38;;;;;;;27.83;12.00;;;16.80;99.10;;;;;;4973451;28;20038;-70
2021/09/22 08:24:04;;;;;;;23.75;11.55;;;16.80;99.00;;;;;;4973562;28;20027;-69
2021/09/22 08:26:30;;;;;;;27.33;11.50;;;16.90;99.00;;;;;;4973047;28;20023;-70
2021/09/22 08:28:55;;;;;;;23.77;11.75;;;16.80;99.00;;;;;;4973410;28;20046;-69
2021/09/22 08:31:21;;;;;;;19.40;10.48;;;16.90;99.00;;;;;;4973308;28;20059;-71
2021/09/22 08:33:47;;;;;;;32.25;10.82;;;17.00;98.90;;;;;;4972247;28;20070;-70
2021/09/22 08:36:13;;;;;;;22.80;10.55;;;17.00;98.80;;;;;;4973217;28;20454;-71
2021/09/22 08:38:39;;;;;;;23.55;9.85;;;17.00;98.70;;;;;;4973758;28;20523;-70
2021/09/22 08:41:05;;;;;;;16.48;9.35;;;17.00;98.70;;;;;;4973375;28;20031;-70
2021/09/22 08:43:31;;;;;;;17.30;9.23;;;17.00;98.70;;;;;;4973280;28;20038;-71
2021/09/22 08:45:57;;;;;;;25.15;9.60;;;17.00;98.60;;;;;;4973072;28;20050;-70
2021/09/22 08:48:26;;;;;;;23.38;10.80;;;17.00;98.60;;;;;;4971776;28;20035;-70
2021/09/22 08:50:53;;;;;;;20.67;10.90;;;17.30;98.60;;;;;;4973497;28;20098;-70
2021/09/22 08:53:19;;;;;;;20.55;8.70;;;17.30;98.40;;;;;;4973080;28;20027;-70
2021/09/22 08:55:45;;;;;;;24.13;9.20;;;17.30;98.20;;;;;;4972952;28;20034;-71
2021/09/22 08:58:10;;;;;;;24.77;8.88;;;17.40;98.30;;;;;;4972952;28;20031;-70
2021/09/22 09:00:36;;;;;;;20.92;8.82;;;17.40;98.30;;;;;;4972946;28;20049;-71
2021/09/22 09:03:02;;;;;;;23.45;9.52;;;17.40;98.30;;;;;;4972606;28;20031;-70
2021/09/22 09:05:28;;;;;;;17.55;8.93;;;17.40;98.20;;;;;;4972938;28;20077;-70
2021/09/22 09:07:59;;;;;;;15.93;8.70;;;17.40;98.20;;;;;;4972403;28;20397;-71
2021/09/22 09:10:27;;;;;;;21.02;8.95;;;17.50;98.20;;;;;;4972669;28;20031;-70
2021/09/22 09:13:07;;;;;;;16.15;7.90;;;17.50;98.10;;;;;;4972796;28;20468;-70
2021/09/22 09:15:45;;;;;;;22.50;8.65;;;17.50;98.10;;;;;;4972869;28;20669;-71
2021/09/22 09:18:17;;;;;;;22.73;7.93;;;17.50;98.10;;;;;;4971451;28;20042;-71
2021/09/22 09:20:50;;;;;;;16.25;7.45;;;17.50;98.10;;;;;;4973500;28;20041;-70
2021/09/22 09:23:19;;;;;;;18.63;7.38;;;17.50;98.00;;;;;;4972599;28;20035;-70
2021/09/22 09:25:57;;;;;;;17.85;7.25;;;17.50;98.00;;;;;;4972401;28;20034;-71
2021/09/22 09:28:36;;;;;;;18.85;7.90;;;17.50;97.90;;;;;;4972333;28;20066;-71
2021/09/22 09:31:06;;;;;;;20.27;7.57;;;17.40;97.90;;;;;;4972334;28;20453;-71
2021/09/22 09:33:36;;;;;;;20.50;7.00;;;17.50;98.10;;;;;;4972470;28;20035;-70
2021/09/22 09:36:34;;;;;;;14.18;6.53;;;17.50;97.80;;;;;;4972357;28;20041;-71
2021/09/22 09:39:07;;;;;;;;;;;17.70;97.60;;;;;;4972960;28;20061;-70
2021/09/22 09:41:34;;;;;;;16.48;6.65;;;17.70;97.60;;;;;;4972436;28;19917;-71
2021/09/22 09:44:03;;;;;;;12.63;5.90;;;17.70;97.30;;;;;;4972301;28;20042;-70
2021/09/22 09:46:30;;;;;;;13.40;4.60;;;17.70;97.20;;;;;;4972059;28;20039;-70
2021/09/22 09:49:00;;;;;;;14.67;4.83;;;17.80;97.00;;;;;;4972550;28;20039;-70
2021/09/22 09:51:55;;;;;;;10.25;5.18;;;17.70;96.80;;;;;;4972061;28;20350;-70
2021/09/22 09:54:22;;;;;;;14.20;5.07;;;17.70;96.80;;;;;;4971412;28;20205;-71
2021/09/22 09:56:49;;;;;;;11.73;4.88;;;17.70;96.70;;;;;;4972602;28;20031;-70
2021/09/22 09:59:17;;;;;;;15.07;5.50;;;17.80;96.80;;;;;;4971870;28;20122;-70
2021/09/22 10:01:48;;;;;;;12.15;4.30;;;17.80;96.60;;;;;;4971961;28;20086;-71
2021/09/22 10:04:19;;;;;;;12.57;4.18;;;17.80;96.50;;;;;;4970613;28;20039;-71
2021/09/22 10:06:46;;;;;;;19.65;4.50;;;17.70;96.40;;;;;;4972167;28;20050;-70
2021/09/22 10:09:12;;;;;;;13.43;4.00;;;18.00;96.40;;;;;;4971957;28;20175;-70
2021/09/22 10:11:40;;;;;;;10.90;3.90;;;18.20;96.40;;;;;;4972512;28;20034;-70
2021/09/22 10:14:07;;;;;;;;;;;18.30;96.00;;;;;;4971362;28;20130;-70
2021/09/22 10:16:36;;;;;;;11.25;3.53;;;18.40;96.00;;;;;;4971920;28;20093;-70
2021/09/22 10:19:04;;;;;;;12.88;3.20;;;18.60;95.40;;;;;;4971910;28;20070;-72
2021/09/22 10:21:31;;;;;;;6.47;2.63;;;18.50;95.20;;;;;;4971931;28;20074;-71
2021/09/22 10:23:58;;;;;;;8.32;3.05;;;18.50;94.80;;;;;;4972690;28;20043;-70
2021/09/22 10:26:25;;;;;;;10.20;3.15;;;18.50;94.80;;;;;;4971744;28;20035;-71
2021/09/22 10:28:53;;;;;;;8.45;2.90;;;18.40;94.70;;;;;;4971819;28;20078;-70
2021/09/22 10:31:30;;;;;;;13.45;3.53;;;18.40;94.90;;;;;;4971911;28;20062;-70
2021/09/22 10:33:59;;;;;;;11.13;3.53;;;18.60;95.40;;;;;;4971712;28;20054;-70
2021/09/22 10:36:40;;;;;;;13.23;3.60;;;19.00;95.30;;;;;;4971843;28;20261;-70
2021/09/22 10:39:10;;;;;;;7.93;3.17;;;19.20;94.60;;;;;;4970674;28;20026;-71
2021/09/22 10:41:42;;;;;;;12.27;5.40;;;19.40;94.60;;;;;;4972456;28;20038;-71
2021/09/22 10:44:11;;;;;;;11.82;3.58;;;19.40;94.20;;;;;;4971838;28;20114;-72
2021/09/22 10:46:37;;;;;;;9.02;3.17;;;19.40;94.30;;;;;;4971534;28;20435;-71
2021/09/22 10:49:09;;;;;;;8.00;2.92;;;19.40;93.60;;;;;;4971877;28;20039;-72
2021/09/22 10:51:41;;;;;;;9.07;2.88;;;19.80;94.30;;;;;;4974086;28;20035;-71
2021/09/22 10:54:09;;;;;;;7.43;2.88;;;20.70;94.50;;;;;;4975277;28;20023;-71
2021/09/22 10:56:51;;;;;;;7.03;2.25;;;20.90;91.90;;;;;;4975587;28;20019;-71
2021/09/22 10:59:39;;;;;;;3.60;1.77;;;20.80;91.60;;;;;;4975240;28;20039;-72
2021/09/22 11:02:11;;;;;;;8.65;2.10;;;20.50;91.00;;;;;;4975269;28;20142;-72
2021/09/22 11:04:54;;;;;;;4.78;2.15;;;20.20;90.80;;;;;;4975143;28;20039;-71
2021/09/22 11:07:20;;;;;;;7.00;2.50;;;20.10;91.10;;;;;;4974776;28;20441;-70
2021/09/22 11:09:45;;;;;;;7.32;2.47;;;20.20;91.30;;;;;;4974872;28;20472;-70
2021/09/22 11:12:13;;;;;;;7.53;2.58;;;20.40;91.40;;;;;;4974823;28;20042;-69
2021/09/22 11:14:41;;;;;;;6.30;2.57;;;20.70;90.80;;;;;;4975269;28;20455;-70
2021/09/22 11:17:22;;;;;;;6.68;2.92;;;21.20;91.20;;;;;;4974655;28;20615;-70
2021/09/22 11:19:52;;;;;;;6.13;2.75;;;21.30;90.60;;;;;;4974873;28;20037;-69
2021/09/22 11:22:23;;;;;;;5.15;2.58;;;21.10;90.80;;;;;;4974747;28;20023;-69
2021/09/22 11:24:52;;;;;;;3.83;2.33;;;21.20;90.50;;;;;;4974826;28;20039;-69
2021/09/22 11:27:20;;;;;;;12.15;3.03;;;20.90;89.70;;;;;;4974390;28;20035;-70
2021/09/22 11:29:57;;;;;;;9.73;3.40;;;21.40;90.10;;;;;;4974889;28;20114;-70
2021/09/22 11:32:29;;;;;;;7.50;2.85;;;21.70;87.30;;;;;;4974685;28;20023;-70
2021/09/22 11:34:57;;;;;;;5.72;2.53;;;21.00;87.10;;;;;;4974283;28;20109;-70
2021/09/22 11:37:28;;;;;;;4.93;2.42;;;21.30;89.00;;;;;;4974278;28;20121;-70
2021/09/22 11:39:54;;;;;;;6.35;2.70;;;21.30;87.90;;;;;;4974458;28;20031;-70
2021/09/22 11:42:19;;;;;;;7.45;3.25;;;21.40;86.90;;;;;;4974537;28;20357;-70
2021/09/22 11:44:50;;;;;;;10.18;3.03;;;21.30;86.80;;;;;;4974487;28;20031;-70
2021/09/22 11:47:17;;;;;;;7.43;2.80;;;21.30;89.00;;;;;;4974071;28;20034;-70
2021/09/22 11:49:44;;;;;;;11.18;3.17;;;21.30;88.80;;;;;;4974344;28;20369;-70
2021/09/22 11:52:20;;;;;;;8.73;3.35;;;21.10;89.90;;;;;;4973996;28;20035;-70
2021/09/22 11:54:49;;;;;;;9.40;3.80;;;21.20;90.00;;;;;;4974074;28;20118;-70
2021/09/22 11:57:17;;;;;;;7.90;3.67;;;20.90;90.00;;;;;;4973068;28;20046;-70
2021/09/22 11:59:45;;;;;;;8.50;3.58;;;20.90;90.00;;;;;;4974553;28;20019;-70
2021/09/22 12:02:15;;;;;;;8.90;3.08;;;20.80;90.10;;;;;;4972969;28;20058;-71
2021/09/22 12:04:46;;;;;;;6.57;2.72;;;20.50;90.10;;;;;;4974128;28;20448;-71
2021/09/22 12:07:12;;;;;;;6.63;3.17;;;20.40;89.80;;;;;;4974020;28;20035;-71
2021/09/22 12:09:49;;;;;;;7.57;3.55;;;20.30;90.10;;;;;;4973508;28;20074;-70
2021/09/22 12:12:18;;;;;;;10.43;3.58;;;20.30;90.20;;;;;;4973741;28;20484;-70
2021/09/22 12:14:57;;;;;;;10.68;3.88;;;20.30;90.10;;;;;;4974107;28;20061;-69
2021/09/22 12:17:33;;;;;;;7.32;3.47;;;20.10;90.00;;;;;;4973615;28;20035;-70
2021/09/22 12:20:00;;;;;;;8.02;3.67;;;19.90;89.90;;;;;;4972542;28;20030;-70
2021/09/22 12:22:37;;;;;;;8.30;3.47;;;19.80;90.00;;;;;;4973802;28;20406;-69
2021/09/22 12:25:04;;;;;;;8.35;3.67;;;19.70;90.00;;;;;;4973419;28;20031;-69
2021/09/22 12:27:31;;;;;;;7.38;3.88;;;19.80;90.40;;;;;;4973481;28;20105;-70
2021/09/22 12:30:04;;;;;;;13.00;4.32;;;19.60;90.20;;;;;;4973599;28;20045;-71
2021/09/22 12:32:33;;;;;;;10.30;4.25;;;19.70;90.30;;;;;;4954339;28;20047;-72